createdAt,value
2019-05-25T00:01:17.521Z,1.00
2019-05-25T00:03:47.690Z,45.30
2019-05-25T00:06:17.826Z,63.30
2019-05-25T00:08:47.995Z,76.70
2019-05-25T00:11:18.135Z,99.90
2019-05-25T00:13:48.296Z,99.90
2019-05-25T00:16:18.496Z,99.90
2019-05-25T00:18:48.692Z,99.90
2019-05-25T00:21:18.912Z,99.90
2019-05-25T00:23:49.043Z,99.90
2019-05-25T00:26:19.227Z,99.90
2019-05-25T00:28:49.469Z,99.90
2019-05-25T00:31:19.696Z,1.00
2019-05-25T00:33:51.131Z,1.00
2019-05-25T00:36:21.308Z,1.00
2019-05-25T00:38:51.505Z,1.00
2019-05-25T00:41:23.124Z,1.00
2019-05-25T00:43:53.296Z,1.00
2019-05-25T00:46:23.442Z,1.00
2019-05-25T00:48:53.584Z,1.00
2019-05-25T00:51:23.728Z,1.00
2019-05-25T00:53:53.888Z,1.00
2019-05-25T00:56:24.043Z,99.90
2019-05-25T00:58:54.200Z,99.90
2019-05-25T01:01:24.592Z,99.90
2019-05-25T01:03:54.904Z,1.00
2019-05-25T01:06:25.082Z,1.00
2019-05-25T01:08:55.317Z,5.30
2019-05-25T01:11:25.468Z,99.90
2019-05-25T01:13:55.620Z,99.90
2019-05-25T01:16:25.789Z,1.00
2019-05-25T01:18:55.928Z,1.00
2019-05-25T01:21:27.151Z,1.00
2019-05-25T01:23:57.350Z,1.00
2019-05-25T01:26:27.549Z,1.00
2019-05-25T01:28:57.695Z,1.00
2019-05-25T01:31:28.978Z,42.30
2019-05-25T01:33:59.192Z,99.90
2019-05-25T01:36:29.364Z,1.00
2019-05-25T01:38:59.525Z,1.00
2019-05-25T01:41:29.674Z,1.00
2019-05-25T01:43:59.815Z,1.00
2019-05-25T01:46:29.967Z,99.90
2019-05-25T01:49:00.131Z,1.00
2019-05-25T01:51:30.266Z,99.90
2019-05-25T01:54:01.470Z,1.00
2019-05-25T01:56:31.616Z,8.40
2019-05-25T01:59:01.753Z,99.90
2019-05-25T02:01:32.039Z,1.00
2019-05-25T02:04:02.183Z,99.90
2019-05-25T02:06:32.335Z,1.00
2019-05-25T02:09:02.667Z,1.00
2019-05-25T02:11:32.974Z,1.00
2019-05-25T02:14:03.136Z,1.00
2019-05-25T02:16:33.307Z,99.90
2019-05-25T02:19:03.512Z,99.90
2019-05-25T02:21:33.647Z,99.90
2019-05-25T02:24:03.815Z,1.00
2019-05-25T02:26:33.979Z,99.90
2019-05-25T02:29:04.484Z,99.90
2019-05-25T02:31:34.620Z,1.00
2019-05-25T02:34:04.821Z,1.00
2019-05-25T02:36:35.031Z,1.00
2019-05-25T02:39:07.538Z,1.00
2019-05-25T02:41:37.660Z,9.70
2019-05-25T02:44:07.819Z,64.30
2019-05-25T02:46:37.964Z,30.90
2019-05-25T02:49:08.241Z,99.90
2019-05-25T02:51:38.364Z,99.90
2019-05-25T02:54:08.512Z,99.90
2019-05-25T02:56:38.656Z,73.20
2019-05-25T02:59:08.854Z,99.90
2019-05-25T03:01:39.019Z,99.90
2019-05-25T03:04:09.195Z,99.90
2019-05-25T03:06:39.845Z,99.90
2019-05-25T03:09:10.074Z,99.90
2019-05-25T03:11:41.006Z,99.90
2019-05-25T03:14:11.842Z,99.90
2019-05-25T03:16:41.991Z,99.90
2019-05-25T03:19:12.127Z,99.90
2019-05-25T03:21:42.283Z,99.90
2019-05-25T03:24:12.465Z,99.90
2019-05-25T03:26:42.675Z,99.90
2019-05-25T03:29:12.831Z,99.90
2019-05-25T03:31:43.964Z,99.90
2019-05-25T03:34:14.135Z,99.90
2019-05-25T03:36:44.299Z,99.90
2019-05-25T03:39:14.439Z,99.90
2019-05-25T03:41:44.579Z,99.90
2019-05-25T03:44:14.743Z,99.90
2019-05-25T03:46:44.899Z,99.90
2019-05-25T03:49:15.064Z,99.90
2019-05-25T03:51:45.212Z,99.90
2019-05-25T03:54:15.457Z,99.90
2019-05-25T03:56:45.603Z,99.90
2019-05-25T03:59:15.796Z,99.90
2019-05-25T04:01:45.965Z,99.90
2019-05-25T04:04:16.131Z,99.90
2019-05-25T04:06:46.304Z,99.90
2019-05-25T04:09:16.481Z,99.90
2019-05-25T04:11:46.634Z,99.90
2019-05-25T04:14:16.783Z,99.90
2019-05-25T04:16:46.951Z,99.90
2019-05-25T04:19:17.088Z,99.90
2019-05-25T04:21:47.259Z,99.90
2019-05-25T04:24:18.132Z,99.90
2019-05-25T04:26:48.299Z,99.90
2019-05-25T04:29:18.474Z,99.90
2019-05-25T04:31:48.667Z,99.90
2019-05-25T04:34:18.923Z,99.90
2019-05-25T04:36:49.106Z,99.90
2019-05-25T04:39:19.275Z,99.90
2019-05-25T04:41:49.430Z,99.90
2019-05-25T04:44:19.669Z,99.90
2019-05-25T04:46:49.853Z,99.90
2019-05-25T04:49:19.998Z,99.90
2019-05-25T04:51:50.166Z,99.90
2019-05-25T04:54:20.310Z,99.90
2019-05-25T04:56:51.013Z,99.90
2019-05-25T04:59:21.167Z,99.90
2019-05-25T05:01:52.378Z,64.90
2019-05-25T05:04:22.555Z,1.00
2019-05-25T05:06:52.733Z,1.00
2019-05-25T05:09:22.951Z,1.00
2019-05-25T05:11:53.095Z,1.00
2019-05-25T05:14:23.261Z,1.00
2019-05-25T05:16:53.396Z,1.00
2019-05-25T05:19:23.552Z,1.00
2019-05-25T05:21:53.784Z,1.00
2019-05-25T05:24:23.957Z,1.00
2019-05-25T05:26:56.170Z,99.90
2019-05-25T05:29:26.183Z,99.90
2019-05-25T05:31:56.341Z,99.90
2019-05-25T05:34:26.522Z,99.90
2019-05-25T05:36:57.567Z,99.90
2019-05-25T05:39:28.936Z,99.90
2019-05-25T05:42:00.824Z,1.00
2019-05-25T05:44:32.778Z,1.00
2019-05-25T05:47:04.542Z,99.90
2019-05-25T05:49:34.889Z,1.00
2019-05-25T05:52:05.086Z,99.90
2019-05-25T05:54:37.251Z,99.90
2019-05-25T05:57:12.231Z,99.90
2019-05-25T05:59:39.311Z,1.00
2019-05-25T06:02:09.506Z,99.90
2019-05-25T06:04:39.742Z,99.90
2019-05-25T06:07:09.880Z,99.90
2019-05-25T06:09:40.037Z,99.90
2019-05-25T06:12:10.200Z,99.90
2019-05-25T06:14:40.404Z,99.90
2019-05-25T06:17:10.572Z,99.90
2019-05-25T06:19:40.732Z,99.90
2019-05-25T06:22:10.875Z,99.90
2019-05-25T06:24:41.068Z,1.00
2019-05-25T06:27:24.621Z,1.00
2019-05-25T06:29:43.142Z,99.90
2019-05-25T06:32:13.336Z,99.90
2019-05-25T06:34:43.587Z,1.00
2019-05-25T06:37:13.788Z,1.00
2019-05-25T06:39:44.019Z,99.90
2019-05-25T06:42:14.196Z,99.90
2019-05-25T06:44:44.391Z,99.90
2019-05-25T06:47:14.524Z,52.60
2019-05-25T06:49:44.709Z,1.00
2019-05-25T06:52:14.963Z,99.90
2019-05-25T06:54:45.318Z,99.90
2019-05-25T06:57:15.488Z,99.90
2019-05-25T06:59:46.781Z,1.00
2019-05-25T07:02:16.949Z,1.00
2019-05-25T07:04:47.141Z,1.00
2019-05-25T07:07:17.376Z,1.00
2019-05-25T07:09:47.638Z,1.00
2019-05-25T07:12:19.259Z,1.00
2019-05-25T07:14:49.441Z,1.00
2019-05-25T07:17:19.588Z,1.00
2019-05-25T07:19:49.752Z,1.00
2019-05-25T07:22:19.941Z,1.00
2019-05-25T07:24:50.296Z,1.00
2019-05-25T07:27:20.449Z,1.00
2019-05-25T07:29:50.615Z,1.00
2019-05-25T07:32:21.058Z,1.00
2019-05-25T07:34:51.223Z,1.00
2019-05-25T07:37:21.515Z,1.00
2019-05-25T07:39:51.704Z,1.00
2019-05-25T07:42:22.945Z,1.00
2019-05-25T07:44:53.113Z,1.00
2019-05-25T07:47:23.282Z,1.00
2019-05-25T07:49:53.738Z,44.10
2019-05-25T07:52:23.886Z,1.00
2019-05-25T07:54:54.167Z,1.00
2019-05-25T07:57:24.312Z,1.00
2019-05-25T07:59:54.468Z,1.00
2019-05-25T08:02:24.623Z,1.00
2019-05-25T08:04:55.004Z,1.00
2019-05-25T08:07:25.221Z,99.90
2019-05-25T08:09:55.376Z,99.90
2019-05-25T08:12:25.585Z,99.90
2019-05-25T08:14:55.743Z,99.90
2019-05-25T08:17:25.912Z,99.90
2019-05-25T08:19:56.068Z,99.90
2019-05-25T08:22:26.331Z,99.90
2019-05-25T08:24:56.528Z,99.90
2019-05-25T08:27:26.704Z,99.90
2019-05-25T08:29:56.950Z,99.90
2019-05-25T08:32:27.093Z,99.90
2019-05-25T08:34:57.276Z,99.90
2019-05-25T08:37:27.444Z,99.90
2019-05-25T08:39:57.639Z,99.90
2019-05-25T08:42:27.798Z,99.90
2019-05-25T08:44:57.980Z,99.90
2019-05-25T08:47:28.162Z,99.90
2019-05-25T08:49:58.315Z,99.90
2019-05-25T08:52:29.655Z,99.90
2019-05-25T08:55:01.436Z,99.90
2019-05-25T08:57:31.805Z,63.10
2019-05-25T09:00:01.973Z,59.20
2019-05-25T09:02:32.211Z,45.40
2019-05-25T09:05:02.361Z,1.00
2019-05-25T09:07:32.513Z,1.00
2019-05-25T09:10:03.079Z,5.80
2019-05-25T09:12:33.266Z,1.00
2019-05-25T09:15:05.898Z,1.00
2019-05-25T09:17:35.293Z,1.00
2019-05-25T09:20:06.159Z,1.00
2019-05-25T09:22:36.312Z,1.00
2019-05-25T09:25:06.496Z,1.00
2019-05-25T09:27:36.672Z,1.00
2019-05-25T09:30:07.392Z,1.00
2019-05-25T09:32:37.866Z,1.00
2019-05-25T09:35:08.861Z,1.00
2019-05-25T09:37:38.995Z,1.00
2019-05-25T09:40:09.663Z,1.00
2019-05-25T09:42:40.264Z,1.00
2019-05-25T09:45:14.043Z,1.00
2019-05-25T09:47:43.016Z,1.00
2019-05-25T09:50:13.452Z,1.00
2019-05-25T09:52:43.637Z,1.00
2019-05-25T09:55:14.099Z,1.00
2019-05-25T09:57:44.316Z,1.00
2019-05-25T10:00:15.227Z,1.00
2019-05-25T10:02:45.568Z,1.00
2019-05-25T10:05:17.017Z,1.00
2019-05-25T10:07:47.208Z,1.00
2019-05-25T10:10:17.762Z,1.00
2019-05-25T10:12:47.972Z,1.00
2019-05-25T10:15:18.159Z,1.00
2019-05-25T10:17:48.379Z,1.00
2019-05-25T10:20:18.791Z,1.00
2019-05-25T10:22:48.989Z,1.00
2019-05-25T10:25:19.445Z,1.00
2019-05-25T10:27:49.633Z,1.00
2019-05-25T10:30:20.028Z,1.00
2019-05-25T10:32:50.220Z,99.90
2019-05-25T10:35:20.490Z,99.90
2019-05-25T10:37:50.647Z,99.90
2019-05-25T10:40:20.838Z,99.90
2019-05-25T10:42:51.211Z,99.90
2019-05-25T10:45:21.527Z,99.90
2019-05-25T10:47:51.724Z,99.90
2019-05-25T10:50:21.984Z,99.90
2019-05-25T10:52:52.164Z,99.90
2019-05-25T10:55:22.334Z,99.90
2019-05-25T10:57:52.515Z,99.90
2019-05-25T11:00:22.960Z,99.90
2019-05-25T11:02:53.160Z,99.90
2019-05-25T11:05:23.423Z,99.90
2019-05-25T11:07:53.648Z,99.90
2019-05-25T11:10:23.811Z,99.90
2019-05-25T11:12:53.979Z,99.90
2019-05-25T11:15:24.147Z,99.90
2019-05-25T11:17:54.987Z,99.90
2019-05-25T11:20:25.552Z,99.90
2019-05-25T11:22:55.881Z,99.90
2019-05-25T11:25:26.144Z,99.90
2019-05-25T11:27:56.358Z,99.90
2019-05-25T11:30:26.544Z,99.90
2019-05-25T11:32:56.717Z,99.90
2019-05-25T11:35:26.863Z,99.90
2019-05-25T11:37:57.048Z,99.90
2019-05-25T11:40:27.291Z,99.90
2019-05-25T11:42:58.671Z,99.90
2019-05-25T11:45:28.892Z,99.90
2019-05-25T11:47:59.157Z,99.90
2019-05-25T11:50:29.374Z,99.90
2019-05-25T11:52:59.520Z,99.90
2019-05-25T11:55:29.709Z,99.90
2019-05-25T11:57:59.947Z,99.90
2019-05-25T12:00:30.360Z,99.90
2019-05-25T12:03:00.633Z,99.90
2019-05-25T12:05:30.819Z,99.90
2019-05-25T12:08:01.000Z,99.90
2019-05-25T12:10:31.157Z,99.90
2019-05-25T12:13:01.339Z,99.90
2019-05-25T12:15:31.498Z,99.90
2019-05-25T12:18:01.680Z,99.90
2019-05-25T12:20:31.931Z,99.90
2019-05-25T12:23:02.659Z,99.90
2019-05-25T12:25:33.355Z,99.90
2019-05-25T12:28:03.596Z,99.90
2019-05-25T12:30:40.930Z,99.90
2019-05-25T12:33:05.672Z,99.90
2019-05-25T12:35:35.803Z,99.90
2019-05-25T12:38:05.985Z,99.90
2019-05-25T12:40:36.132Z,99.90
2019-05-25T12:43:06.499Z,99.90
2019-05-25T12:45:36.747Z,99.90
2019-05-25T12:48:07.708Z,99.90
2019-05-25T12:50:37.895Z,99.90
2019-05-25T12:53:08.021Z,99.90
2019-05-25T12:55:38.203Z,99.90
2019-05-25T12:58:08.523Z,99.90
2019-05-25T13:00:38.684Z,99.90
2019-05-25T13:03:10.925Z,99.90
2019-05-25T13:05:40.760Z,99.90
2019-05-25T13:08:10.987Z,99.90
2019-05-25T13:10:41.115Z,99.90
2019-05-25T13:13:11.363Z,99.90
2019-05-25T13:15:41.498Z,99.90
2019-05-25T13:18:11.787Z,99.90
2019-05-25T13:20:41.955Z,99.90
2019-05-25T13:23:12.145Z,99.90
2019-05-25T13:25:42.307Z,99.90
2019-05-25T13:28:12.564Z,99.90
2019-05-25T13:30:42.840Z,99.90
2019-05-25T13:33:14.471Z,99.90
2019-05-25T13:35:44.620Z,99.90
2019-05-25T13:38:14.960Z,99.90
2019-05-25T13:40:46.189Z,99.90
2019-05-25T13:43:16.343Z,99.90
2019-05-25T13:45:46.507Z,99.90
2019-05-25T13:48:16.707Z,99.90
2019-05-25T13:50:46.836Z,99.90
2019-05-25T13:53:17.150Z,99.90
2019-05-25T13:55:47.380Z,99.90
2019-05-25T13:58:17.558Z,99.90
2019-05-25T14:00:47.717Z,99.90
2019-05-25T14:03:20.795Z,99.90
2019-05-25T14:05:50.992Z,99.90
2019-05-25T14:08:21.171Z,99.90
2019-05-25T14:10:51.357Z,99.90
2019-05-25T14:13:21.643Z,99.90
2019-05-25T14:16:06.157Z,99.90
2019-05-25T14:18:23.704Z,99.90
2019-05-25T14:20:53.976Z,99.90
2019-05-25T14:23:24.247Z,99.90
2019-05-25T14:25:54.456Z,99.90
2019-05-25T14:28:24.637Z,99.90
2019-05-25T14:30:56.310Z,99.90
2019-05-25T14:33:26.556Z,99.90
2019-05-25T14:35:56.789Z,99.90
2019-05-25T14:38:26.951Z,99.90
2019-05-25T14:40:57.220Z,99.90
2019-05-25T14:43:27.396Z,99.90
2019-05-25T14:45:57.576Z,99.90
2019-05-25T14:48:27.699Z,99.90
2019-05-25T14:50:57.871Z,99.90
2019-05-25T14:53:28.295Z,99.90
2019-05-25T14:55:58.494Z,99.90
2019-05-25T14:58:28.687Z,99.90
2019-05-25T15:00:58.868Z,99.90
2019-05-25T15:03:29.197Z,99.90
2019-05-25T15:05:59.465Z,99.90
2019-05-25T15:08:29.783Z,99.90
2019-05-25T15:11:00.067Z,99.90
2019-05-25T15:13:30.345Z,99.90
2019-05-25T15:16:00.506Z,99.90
2019-05-25T15:18:30.779Z,99.90
2019-05-25T15:21:01.098Z,99.90
2019-05-25T15:23:31.412Z,99.90
2019-05-25T15:26:01.628Z,99.90
2019-05-25T15:28:31.984Z,99.90
2019-05-25T15:31:02.260Z,99.90
2019-05-25T15:33:32.409Z,99.90
2019-05-25T15:36:02.666Z,99.90
2019-05-25T15:38:32.830Z,99.90
2019-05-25T15:41:03.063Z,99.90
2019-05-25T15:43:33.234Z,99.90
2019-05-25T15:46:03.426Z,99.90
2019-05-25T15:48:34.694Z,99.90
2019-05-25T15:51:05.263Z,99.90
2019-05-25T15:53:35.607Z,99.90
2019-05-25T15:56:05.888Z,99.90
2019-05-25T15:58:36.120Z,99.90
2019-05-25T16:01:06.311Z,99.90
2019-05-25T16:03:36.457Z,99.90
2019-05-25T16:06:06.900Z,99.90
2019-05-25T16:08:37.061Z,99.90
2019-05-25T16:11:07.503Z,99.90
2019-05-25T16:13:37.674Z,99.90
2019-05-25T16:16:07.926Z,99.90
2019-05-25T16:18:38.184Z,99.90
2019-05-25T16:21:08.711Z,99.90
2019-05-25T16:23:38.872Z,99.90
2019-05-25T16:26:09.107Z,99.90
2019-05-25T16:28:39.260Z,99.90
2019-05-25T16:31:09.545Z,99.90
2019-05-25T16:33:39.704Z,99.90
2019-05-25T16:36:10.102Z,99.90
2019-05-25T16:38:40.423Z,99.90
2019-05-25T16:41:11.043Z,99.90
2019-05-25T16:43:41.217Z,99.90
2019-05-25T16:46:13.201Z,1.00
2019-05-25T16:48:43.348Z,1.00
2019-05-25T16:51:13.559Z,1.00
2019-05-25T16:53:43.707Z,1.00
2019-05-25T16:56:13.926Z,1.00
2019-05-25T16:58:44.077Z,1.00
2019-05-25T17:01:17.777Z,1.00
2019-05-25T17:03:46.245Z,1.00
2019-05-25T17:06:16.572Z,1.00
2019-05-25T17:08:46.838Z,1.00
2019-05-25T17:11:17.148Z,1.00
2019-05-25T17:13:47.305Z,1.00
2019-05-25T17:16:17.730Z,1.00
2019-05-25T17:18:47.897Z,1.00
2019-05-25T17:21:18.157Z,1.00
2019-05-25T17:23:48.323Z,1.00
2019-05-25T17:26:18.708Z,1.00
2019-05-25T17:28:48.863Z,1.00
2019-05-25T17:31:20.240Z,1.00
2019-05-25T17:33:51.094Z,1.00
2019-05-25T17:36:21.279Z,1.00
2019-05-25T17:38:52.484Z,1.00
2019-05-25T17:41:23.983Z,1.00
2019-05-25T17:43:54.246Z,1.00
2019-05-25T17:46:24.572Z,1.00
2019-05-25T17:48:54.836Z,1.00
2019-05-25T17:51:25.079Z,1.00
2019-05-25T17:53:55.251Z,1.00
2019-05-25T17:56:25.523Z,1.00
2019-05-25T17:58:55.711Z,1.00
2019-05-25T18:01:25.974Z,1.00
2019-05-25T18:04:06.277Z,1.00
2019-05-25T18:06:28.173Z,1.00
2019-05-25T18:08:58.287Z,1.00
2019-05-25T18:11:29.815Z,1.00
2019-05-25T18:13:59.959Z,1.00
2019-05-25T18:16:30.321Z,1.00
2019-05-25T18:19:00.504Z,1.00
2019-05-25T18:21:30.797Z,1.00
2019-05-25T18:24:00.980Z,1.00
2019-05-25T18:26:31.157Z,1.00
2019-05-25T18:29:01.312Z,1.00
2019-05-25T18:31:32.646Z,1.00
2019-05-25T18:34:13.336Z,1.00
2019-05-25T18:36:36.192Z,1.00
2019-05-25T18:39:07.907Z,1.00
2019-05-25T18:41:38.104Z,1.00
2019-05-25T18:44:08.336Z,1.00
2019-05-25T18:46:38.576Z,1.00
2019-05-25T18:49:08.748Z,1.00
2019-05-25T18:51:39.944Z,1.00
2019-05-25T18:54:10.124Z,1.00
2019-05-25T18:56:40.309Z,1.00
2019-05-25T18:59:10.519Z,1.00
2019-05-25T19:01:40.736Z,1.00
2019-05-25T19:04:10.964Z,1.00
2019-05-25T19:06:41.357Z,1.00
2019-05-25T19:09:11.720Z,1.00
2019-05-25T19:11:41.981Z,1.00
2019-05-25T19:14:12.350Z,1.00
2019-05-25T19:16:42.614Z,1.00
2019-05-25T19:19:12.779Z,1.00
2019-05-25T19:21:44.155Z,2.20
2019-05-25T19:24:14.380Z,29.30
2019-05-25T19:26:44.531Z,92.50
2019-05-25T19:29:14.691Z,99.90
2019-05-25T19:31:44.880Z,99.90
2019-05-25T19:34:15.152Z,99.90
2019-05-25T19:36:45.596Z,99.90
2019-05-25T19:39:15.807Z,99.90
2019-05-25T19:41:47.849Z,99.90
2019-05-25T19:44:18.333Z,99.90
2019-05-25T19:46:48.743Z,99.90
2019-05-25T19:49:18.936Z,99.90
2019-05-25T19:51:49.299Z,1.00
2019-05-25T19:54:19.565Z,1.00
2019-05-25T19:56:49.860Z,1.00
2019-05-25T19:59:20.066Z,1.00
2019-05-25T20:01:50.512Z,1.00
2019-05-25T20:04:20.759Z,1.00
2019-05-25T20:06:52.555Z,1.00
2019-05-25T20:09:22.822Z,1.00
2019-05-25T20:11:53.031Z,1.00
2019-05-25T20:14:24.808Z,1.00
2019-05-25T20:16:55.089Z,1.00
2019-05-25T20:19:25.346Z,1.00
2019-05-25T20:21:55.819Z,1.00
2019-05-25T20:24:26.062Z,1.00
2019-05-25T20:26:56.263Z,1.00
2019-05-25T20:29:26.431Z,99.90
2019-05-25T20:31:56.748Z,1.00
2019-05-25T20:34:26.949Z,1.00
2019-05-25T20:36:57.179Z,1.00
2019-05-25T20:39:27.420Z,1.00
2019-05-25T20:41:57.618Z,1.00
2019-05-25T20:44:27.807Z,99.90
2019-05-25T20:46:58.121Z,99.90
2019-05-25T20:49:28.435Z,99.90
2019-05-25T20:51:58.976Z,1.00
2019-05-25T20:54:29.169Z,99.90
2019-05-25T20:56:59.473Z,99.90
2019-05-25T20:59:29.710Z,99.90
2019-05-25T21:01:59.900Z,99.90
2019-05-25T21:04:31.699Z,99.90
2019-05-25T21:07:02.057Z,99.90
2019-05-25T21:09:33.509Z,1.00
2019-05-25T21:12:03.795Z,1.00
2019-05-25T21:14:34.024Z,1.00
2019-05-25T21:17:04.332Z,99.90
2019-05-25T21:19:34.700Z,1.00
2019-05-25T21:22:06.083Z,99.90
2019-05-25T21:24:36.312Z,99.90
2019-05-25T21:27:06.506Z,99.90
2019-05-25T21:29:37.809Z,1.00
2019-05-25T21:32:08.008Z,1.00
2019-05-25T21:34:38.211Z,1.00
2019-05-25T21:37:08.463Z,1.00
2019-05-25T21:39:38.604Z,1.00
2019-05-25T21:42:08.831Z,1.00
2019-05-25T21:44:39.005Z,1.00
2019-05-25T21:47:09.192Z,1.00
2019-05-25T21:49:39.344Z,1.00
2019-05-25T21:52:09.548Z,1.00
2019-05-25T21:54:40.919Z,1.00
2019-05-25T21:57:11.103Z,1.00
2019-05-25T21:59:41.441Z,99.90
2019-05-25T22:02:11.651Z,99.90
2019-05-25T22:04:43.128Z,1.00
2019-05-25T22:07:13.309Z,1.00
2019-05-25T22:09:43.478Z,99.90
2019-05-25T22:12:14.716Z,1.00
2019-05-25T22:14:44.889Z,1.00
2019-05-25T22:17:15.172Z,99.90
2019-05-25T22:19:47.831Z,99.90
2019-05-25T22:22:18.136Z,51.70
2019-05-25T22:24:48.388Z,1.00
2019-05-25T22:27:19.055Z,1.00
2019-05-25T22:29:49.212Z,1.00
2019-05-25T22:32:19.367Z,1.00
2019-05-25T22:34:49.532Z,26.50
2019-05-25T22:37:19.681Z,1.00
2019-05-25T22:39:49.880Z,57.90
2019-05-25T22:42:20.028Z,1.00
2019-05-25T22:44:50.291Z,1.00
2019-05-25T22:47:20.446Z,1.00
2019-05-25T22:49:50.817Z,1.00
2019-05-25T22:52:21.011Z,99.90
2019-05-25T22:54:51.228Z,93.30
2019-05-25T22:57:21.381Z,99.90
2019-05-25T22:59:52.572Z,99.90
2019-05-25T23:02:22.744Z,85.60
2019-05-25T23:04:53.070Z,1.00
2019-05-25T23:07:23.216Z,1.00
2019-05-25T23:09:53.527Z,99.90
2019-05-25T23:12:23.660Z,1.00
2019-05-25T23:14:54.980Z,1.00
2019-05-25T23:17:25.156Z,99.90
2019-05-25T23:19:58.144Z,1.00
2019-05-25T23:22:28.425Z,99.90
2019-05-25T23:24:58.600Z,1.00
2019-05-25T23:27:29.202Z,1.00
2019-05-25T23:30:00.423Z,99.90
2019-05-25T23:32:30.661Z,99.90
2019-05-25T23:35:00.835Z,1.00
2019-05-25T23:37:31.001Z,99.90
2019-05-25T23:40:01.644Z,1.00
2019-05-25T23:42:31.931Z,1.00
2019-05-25T23:45:02.107Z,81.10
2019-05-25T23:47:32.334Z,1.00
2019-05-25T23:50:04.716Z,99.90
2019-05-25T23:52:34.875Z,1.00
2019-05-25T23:55:05.564Z,1.00
2019-05-25T23:57:35.981Z,1.00
